createdAt,value
2019-03-03T00:00:49.332Z,7.11
2019-03-03T00:03:27.067Z,7.12
2019-03-03T00:06:13.995Z,7.11
2019-03-03T00:08:43.059Z,7.11
2019-03-03T00:11:25.109Z,7.10
2019-03-03T00:14:01.425Z,7.10
2019-03-03T00:16:32.976Z,7.08
2019-03-03T00:19:29.380Z,7.07
2019-03-03T00:21:59.578Z,7.07
2019-03-03T00:24:39.932Z,7.07
2019-03-03T00:27:15.934Z,7.07
2019-03-03T00:29:53.911Z,7.08
2019-03-03T00:32:26.888Z,7.11
2019-03-03T00:35:00.342Z,7.11
2019-03-03T00:37:56.257Z,7.12
2019-03-03T00:40:45.394Z,7.12
2019-03-03T00:43:21.526Z,7.14
2019-03-03T00:46:27.980Z,7.16
2019-03-03T00:49:41.444Z,7.17
2019-03-03T00:52:37.528Z,7.20
2019-03-03T00:55:22.952Z,7.23
2019-03-03T00:58:13.927Z,7.22
2019-03-03T01:01:03.589Z,7.25
2019-03-03T01:03:59.772Z,7.25
2019-03-03T01:06:54.254Z,7.32
2019-03-03T01:09:46.571Z,7.31
2019-03-03T01:12:38.630Z,7.34
2019-03-03T01:15:31.004Z,7.38
2019-03-03T01:18:29.123Z,7.40
2019-03-03T01:21:40.799Z,7.41
2019-03-03T01:24:28.690Z,7.42
2019-03-03T01:27:09.532Z,7.42
2019-03-03T01:29:49.296Z,7.43
2019-03-03T01:32:18.367Z,7.47
2019-03-03T01:35:11.829Z,7.46
2019-03-03T01:37:44.163Z,7.51
2019-03-03T01:40:41.050Z,7.55
2019-03-03T01:43:23.892Z,7.57
2019-03-03T01:45:57.322Z,7.60
2019-03-03T01:48:38.700Z,7.62
2019-03-03T01:51:21.134Z,7.64
2019-03-03T01:53:51.990Z,7.65
2019-03-03T01:56:30.897Z,7.68
2019-03-03T01:59:00.483Z,7.67
2019-03-03T02:01:47.190Z,7.71
2019-03-03T02:04:20.515Z,7.72
2019-03-03T02:07:01.052Z,7.72
2019-03-03T02:09:37.800Z,7.73
2019-03-03T02:12:11.328Z,7.76
2019-03-03T02:14:57.606Z,7.79
2019-03-03T02:17:40.645Z,7.82
2019-03-03T02:20:12.379Z,7.83
2019-03-03T02:22:59.644Z,7.83
2019-03-03T02:25:34.170Z,7.84
2019-03-03T02:28:07.228Z,7.84
2019-03-03T02:30:44.254Z,7.85
2019-03-03T02:33:13.415Z,7.86
2019-03-03T02:35:49.260Z,7.87
2019-03-03T02:38:27.694Z,7.90
2019-03-03T02:41:04.177Z,7.91
2019-03-03T02:43:43.984Z,7.93
2019-03-03T02:46:16.504Z,7.95
2019-03-03T02:49:00.094Z,7.94
2019-03-03T02:51:32.085Z,7.95
2019-03-03T02:54:08.810Z,7.99
2019-03-03T02:56:41.484Z,7.99
2019-03-03T02:59:21.880Z,8.03
2019-03-03T03:01:59.907Z,8.02
2019-03-03T03:04:37.054Z,8.02
2019-03-03T03:07:29.832Z,8.10
2019-03-03T03:10:22.352Z,8.11
2019-03-03T03:13:02.586Z,8.13
2019-03-03T03:16:00.607Z,8.14
2019-03-03T03:18:54.159Z,8.12
2019-03-03T03:21:39.401Z,8.14
2019-03-03T03:24:31.565Z,8.19
2019-03-03T03:27:23.438Z,8.19
2019-03-03T03:30:40.373Z,8.21
2019-03-03T03:33:37.807Z,8.23
2019-03-03T03:36:40.494Z,8.29
2019-03-03T03:39:48.625Z,8.28
2019-03-03T03:42:26.024Z,8.28
2019-03-03T03:45:29.713Z,8.29
2019-03-03T03:48:27.954Z,8.29
2019-03-03T03:51:31.613Z,8.29
2019-03-03T03:54:21.218Z,8.32
2019-03-03T03:57:08.696Z,8.34
2019-03-03T04:00:02.267Z,8.36
2019-03-03T04:03:08.030Z,8.36
2019-03-03T04:06:03.190Z,8.36
2019-03-03T04:09:10.233Z,8.34
2019-03-03T04:11:59.833Z,8.35
2019-03-03T04:14:41.053Z,8.36
2019-03-03T04:17:42.350Z,8.42
2019-03-03T04:20:36.388Z,8.42
2019-03-03T04:23:28.187Z,8.41
2019-03-03T04:26:12.731Z,8.39
2019-03-03T04:29:01.300Z,8.36
2019-03-03T04:31:55.447Z,8.38
2019-03-03T04:34:52.925Z,8.38
2019-03-03T04:37:40.995Z,8.37
2019-03-03T04:40:17.576Z,8.37
2019-03-03T04:43:07.604Z,8.37
2019-03-03T04:45:44.133Z,8.41
2019-03-03T04:48:39.898Z,8.45
2019-03-03T04:51:34.255Z,8.43
2019-03-03T04:54:41.667Z,8.43
2019-03-03T04:57:39.415Z,8.41
2019-03-03T05:00:45.375Z,8.40
2019-03-03T05:03:28.912Z,8.37
2019-03-03T05:06:06.256Z,8.32
2019-03-03T05:08:49.555Z,8.27
2019-03-03T05:12:09.520Z,8.22
2019-03-03T05:14:50.414Z,8.19
2019-03-03T05:17:30.716Z,8.16
2019-03-03T05:20:01.096Z,8.15
2019-03-03T05:22:37.971Z,8.16
2019-03-03T05:25:07.524Z,8.15
2019-03-03T05:27:43.606Z,8.14
2019-03-03T05:30:13.525Z,8.14
2019-03-03T05:32:53.302Z,8.16
2019-03-03T05:35:26.746Z,8.13
2019-03-03T05:38:01.236Z,8.13
2019-03-03T05:40:35.361Z,8.13
2019-03-03T05:43:14.798Z,8.12
2019-03-03T05:45:56.696Z,8.12
2019-03-03T05:48:29.111Z,8.11
2019-03-03T05:51:01.266Z,8.10
2019-03-03T05:53:34.642Z,8.10
2019-03-03T05:56:09.737Z,8.07
2019-03-03T05:58:41.179Z,8.05
2019-03-03T06:01:17.575Z,8.02
2019-03-03T06:03:52.440Z,8.03
2019-03-03T06:06:21.715Z,8.01
2019-03-03T06:08:56.923Z,8.02
2019-03-03T06:11:30.331Z,8.03
2019-03-03T06:14:02.730Z,8.04
2019-03-03T06:16:40.078Z,8.02
2019-03-03T06:19:13.051Z,8.03
2019-03-03T06:21:42.470Z,8.02
2019-03-03T06:24:12.760Z,8.03
2019-03-03T06:26:44.701Z,8.03
2019-03-03T06:29:17.645Z,8.04
2019-03-03T06:31:49.334Z,8.05
2019-03-03T06:34:22.039Z,8.05
2019-03-03T06:36:59.204Z,8.05
2019-03-03T06:39:29.698Z,8.05
2019-03-03T06:41:58.933Z,8.06
2019-03-03T06:44:33.002Z,8.09
2019-03-03T06:47:02.230Z,8.09
2019-03-03T06:49:36.712Z,8.12
2019-03-03T06:52:05.719Z,8.12
2019-03-03T06:54:36.060Z,8.14
2019-03-03T06:57:09.386Z,8.14
2019-03-03T06:59:50.418Z,8.16
2019-03-03T07:02:19.427Z,8.16
2019-03-03T07:04:51.422Z,8.17
2019-03-03T07:07:24.468Z,8.18
2019-03-03T07:10:06.855Z,8.20
2019-03-03T07:12:48.456Z,8.23
2019-03-03T07:15:20.917Z,8.26
2019-03-03T07:17:51.192Z,8.26
2019-03-03T07:20:27.824Z,8.28
2019-03-03T07:23:06.823Z,8.30
2019-03-03T07:25:39.119Z,8.33
2019-03-03T07:28:17.242Z,8.34
2019-03-03T07:30:47.165Z,8.34
2019-03-03T07:33:31.973Z,8.37
2019-03-03T07:36:02.422Z,8.39
2019-03-03T07:38:38.911Z,8.40
2019-03-03T07:41:17.980Z,8.42
2019-03-03T07:43:47.379Z,8.43
2019-03-03T07:46:23.417Z,8.46
2019-03-03T07:48:59.888Z,8.49
2019-03-03T07:51:38.991Z,8.51
2019-03-03T07:54:10.951Z,8.52
2019-03-03T07:56:42.094Z,8.54
2019-03-03T07:59:18.057Z,8.55
2019-03-03T08:01:49.316Z,8.58
2019-03-03T08:04:32.047Z,8.60
2019-03-03T08:07:04.903Z,8.61
2019-03-03T08:09:34.016Z,8.65
2019-03-03T08:12:11.372Z,8.67
2019-03-03T08:14:40.600Z,8.72
2019-03-03T08:17:10.699Z,8.73
2019-03-03T08:19:42.223Z,8.74
2019-03-03T08:22:14.251Z,8.76
2019-03-03T08:24:45.170Z,8.77
2019-03-03T08:27:18.021Z,8.78
2019-03-03T08:29:55.595Z,8.82
2019-03-03T08:32:31.949Z,8.81
2019-03-03T08:35:03.387Z,8.80
2019-03-03T08:37:32.521Z,8.83
2019-03-03T08:40:11.864Z,8.84
2019-03-03T08:43:01.315Z,8.83
2019-03-03T08:45:43.064Z,8.87
2019-03-03T08:48:20.916Z,8.89
2019-03-03T08:50:58.312Z,8.92
2019-03-03T08:53:55.729Z,8.97
2019-03-03T08:57:06.299Z,9.02
2019-03-03T08:59:49.302Z,9.02
2019-03-03T09:02:30.599Z,9.03
2019-03-03T09:05:12.660Z,9.05
2019-03-03T09:08:19.820Z,9.10
2019-03-03T09:11:14.272Z,9.13
2019-03-03T09:14:05.251Z,9.14
2019-03-03T09:16:58.279Z,9.13
2019-03-03T09:20:02.936Z,9.11
2019-03-03T09:22:55.408Z,9.10
2019-03-03T09:25:57.095Z,9.08
2019-03-03T09:28:58.430Z,9.07
2019-03-03T09:32:08.367Z,9.05
2019-03-03T09:35:13.646Z,9.04
2019-03-03T09:38:14.166Z,9.03
2019-03-03T09:41:30.705Z,9.03
2019-03-03T09:44:19.235Z,9.05
2019-03-03T09:47:21.901Z,9.05
2019-03-03T09:50:14.326Z,9.06
2019-03-03T09:53:00.527Z,9.07
2019-03-03T09:55:58.370Z,9.06
2019-03-03T09:58:42.815Z,9.05
2019-03-03T10:01:40.288Z,9.04
2019-03-03T10:04:40.848Z,9.00
2019-03-03T10:07:37.820Z,9.02
2019-03-03T10:10:19.739Z,9.02
2019-03-03T10:13:11.845Z,8.99
2019-03-03T10:15:58.919Z,8.98
2019-03-03T10:18:39.944Z,8.96
2019-03-03T10:21:22.946Z,8.95
2019-03-03T10:24:34.734Z,8.97
2019-03-03T10:27:33.414Z,8.99
2019-03-03T10:30:25.460Z,8.98
2019-03-03T10:33:20.700Z,8.99
2019-03-03T10:36:29.421Z,9.03
2019-03-03T10:39:30.870Z,9.07
2019-03-03T10:42:24.022Z,9.29
2019-03-03T10:45:23.272Z,9.46
2019-03-03T10:48:11.495Z,9.55
2019-03-03T10:51:05.378Z,9.59
2019-03-03T10:53:55.528Z,9.54
2019-03-03T10:56:43.276Z,9.46
2019-03-03T10:59:43.149Z,9.40
2019-03-03T11:02:40.607Z,9.39
2019-03-03T11:05:56.671Z,9.39
2019-03-03T11:08:51.780Z,9.42
2019-03-03T11:11:40.360Z,9.49
2019-03-03T11:14:58.955Z,9.50
2019-03-03T11:17:50.206Z,9.49
2019-03-03T11:23:34.033Z,9.44
2019-03-03T11:26:37.721Z,9.37
2019-03-03T11:29:36.313Z,9.36
2019-03-03T11:32:36.686Z,9.34
2019-03-03T11:35:42.144Z,9.38
2019-03-03T11:38:43.517Z,9.46
2019-03-03T11:42:01.775Z,9.47
2019-03-03T11:45:08.815Z,9.54
2019-03-03T11:48:13.623Z,9.62
2019-03-03T11:51:27.466Z,9.65
2019-03-03T11:54:11.650Z,9.64
2019-03-03T11:57:41.754Z,9.66
2019-03-03T12:00:42.678Z,9.68
2019-03-03T12:03:43.630Z,9.64
2019-03-03T12:06:45.036Z,9.62
2019-03-03T12:09:35.083Z,9.64
2019-03-03T12:12:34.164Z,9.67
2019-03-03T12:15:31.007Z,9.63
2019-03-03T12:18:33.754Z,9.60
2019-03-03T12:21:15.043Z,9.54
2019-03-03T12:24:10.970Z,9.51
2019-03-03T12:27:07.780Z,9.46
2019-03-03T12:30:12.160Z,9.42
2019-03-03T12:33:05.347Z,9.45
2019-03-03T12:36:05.896Z,9.54
2019-03-03T12:38:54.788Z,9.62
2019-03-03T12:41:52.325Z,9.69
2019-03-03T12:44:38.192Z,9.73
2019-03-03T12:47:42.092Z,9.75
2019-03-03T12:50:51.835Z,9.84
2019-03-03T12:53:51.831Z,9.92
2019-03-03T12:56:54.743Z,10.02
2019-03-03T12:59:53.151Z,10.08
2019-03-03T13:06:07.278Z,10.16
2019-03-03T13:09:07.710Z,10.17
2019-03-03T13:12:10.811Z,10.19
2019-03-03T13:15:01.294Z,10.26
2019-03-03T13:18:05.365Z,10.30
2019-03-03T13:20:48.879Z,10.37
2019-03-03T13:23:34.365Z,10.41
2019-03-03T13:26:27.808Z,10.40
2019-03-03T13:29:18.839Z,10.38
2019-03-03T13:32:07.122Z,10.36
2019-03-03T13:35:06.068Z,10.33
2019-03-03T13:38:04.863Z,10.29
2019-03-03T13:40:45.247Z,10.25
2019-03-03T13:43:15.266Z,10.22
2019-03-03T13:45:48.345Z,10.19
2019-03-03T13:48:20.395Z,10.15
2019-03-03T13:50:52.409Z,10.16
2019-03-03T13:53:25.998Z,10.13
2019-03-03T13:56:01.180Z,10.10
2019-03-03T13:58:42.723Z,10.12
2019-03-03T14:01:20.580Z,10.10
2019-03-03T14:03:58.967Z,10.11
2019-03-03T14:06:29.363Z,10.11
2019-03-03T14:08:58.552Z,10.10
2019-03-03T14:11:35.405Z,10.09
2019-03-03T14:14:10.955Z,10.05
2019-03-03T14:16:46.851Z,10.00
2019-03-03T14:19:21.999Z,9.98
2019-03-03T14:22:02.736Z,9.94
2019-03-03T14:24:35.591Z,9.90
2019-03-03T14:27:10.518Z,9.89
2019-03-03T14:29:39.867Z,9.87
2019-03-03T14:32:10.004Z,9.86
2019-03-03T14:34:42.334Z,9.85
2019-03-03T14:37:11.643Z,9.81
2019-03-03T14:40:01.340Z,9.79
2019-03-03T14:42:36.578Z,9.78
2019-03-03T14:45:11.697Z,9.81
2019-03-03T14:47:57.438Z,9.83
2019-03-03T14:50:28.621Z,9.83
2019-03-03T14:53:00.472Z,9.81
2019-03-03T14:55:29.802Z,9.81
2019-03-03T14:58:09.033Z,9.78
2019-03-03T15:00:39.013Z,9.76
2019-03-03T15:03:13.725Z,9.72
2019-03-03T15:05:44.150Z,9.69
2019-03-03T15:08:17.719Z,9.65
2019-03-03T15:10:56.393Z,9.60
2019-03-03T15:13:38.003Z,9.56
2019-03-03T15:16:09.360Z,9.50
2019-03-03T15:18:43.052Z,9.44
2019-03-03T15:21:24.517Z,9.39
2019-03-03T15:23:46.899Z,9.34
2019-03-03T15:26:25.401Z,9.30
2019-03-03T15:28:56.841Z,9.27
2019-03-03T15:31:37.960Z,9.22
2019-03-03T15:34:06.732Z,9.16
2019-03-03T15:36:41.875Z,9.13
2019-03-03T15:39:16.824Z,9.08
2019-03-03T15:41:52.115Z,9.05
2019-03-03T15:45:04.940Z,9.02
2019-03-03T15:47:37.281Z,8.98
2019-03-03T15:50:10.462Z,8.94
2019-03-03T15:52:39.844Z,8.91
2019-03-03T15:55:10.874Z,8.90
2019-03-03T15:57:59.130Z,8.87
2019-03-03T16:00:32.011Z,8.83
2019-03-03T16:03:05.588Z,8.83
2019-03-03T16:05:34.775Z,8.83
2019-03-03T16:08:04.130Z,8.85
2019-03-03T16:10:41.016Z,8.88
2019-03-03T16:13:13.388Z,8.88
2019-03-03T16:15:42.828Z,8.93
2019-03-03T16:18:21.010Z,8.94
2019-03-03T16:20:57.392Z,8.89
2019-03-03T16:23:39.190Z,8.84
2019-03-03T16:26:08.585Z,8.84
2019-03-03T16:28:39.363Z,8.77
2019-03-03T16:31:13.974Z,8.75
2019-03-03T16:33:45.946Z,8.74
2019-03-03T16:36:25.190Z,8.75
2019-03-03T16:39:02.384Z,8.75
2019-03-03T16:41:43.121Z,8.75
2019-03-03T16:44:22.584Z,8.74
2019-03-03T16:46:53.182Z,8.72
2019-03-03T16:49:23.655Z,8.71
2019-03-03T16:52:07.988Z,8.67
2019-03-03T16:54:50.004Z,8.64
2019-03-03T16:57:22.060Z,8.61
2019-03-03T16:59:58.052Z,8.60
2019-03-03T17:02:27.315Z,8.60
2019-03-03T17:05:02.750Z,8.60
2019-03-03T17:07:34.215Z,8.59
2019-03-03T17:10:11.205Z,8.60
2019-03-03T17:12:41.817Z,8.60
2019-03-03T17:15:18.638Z,8.61
2019-03-03T17:17:50.806Z,8.63
2019-03-03T17:20:26.316Z,8.63
2019-03-03T17:23:08.111Z,8.66
2019-03-03T17:25:42.583Z,8.66
2019-03-03T17:28:12.588Z,8.70
2019-03-03T17:34:13.639Z,8.79
2019-03-03T17:36:45.872Z,8.89
2019-03-03T17:39:22.546Z,8.97
2019-03-03T17:41:57.581Z,9.06
2019-03-03T17:44:31.177Z,9.19
2019-03-03T17:47:03.898Z,9.29
2019-03-03T17:49:46.666Z,9.33
2019-03-03T17:52:21.241Z,9.42
2019-03-03T17:54:53.851Z,9.47
2019-03-03T17:57:43.573Z,9.60
2019-03-03T18:00:24.962Z,9.64
2019-03-03T18:02:56.969Z,9.65
2019-03-03T18:05:37.233Z,9.69
2019-03-03T18:08:35.016Z,9.69
2019-03-03T18:11:08.418Z,9.71
2019-03-03T18:13:43.267Z,9.74
2019-03-03T18:16:14.012Z,9.76
2019-03-03T18:18:58.870Z,9.77
2019-03-03T18:21:30.261Z,9.76
2019-03-03T18:24:03.288Z,9.77
2019-03-03T18:26:41.363Z,9.78
2019-03-03T18:29:12.438Z,9.81
2019-03-03T18:31:44.594Z,9.81
2019-03-03T18:34:18.350Z,9.80
2019-03-03T18:36:55.429Z,9.81
2019-03-03T18:39:32.451Z,9.82
2019-03-03T18:42:08.693Z,9.83
2019-03-03T18:44:46.711Z,9.81
2019-03-03T18:47:24.531Z,9.83
2019-03-03T18:50:37.726Z,9.81
2019-03-03T18:53:34.718Z,9.85
2019-03-03T18:56:08.814Z,9.84
2019-03-03T18:58:49.998Z,9.87
2019-03-03T19:01:28.359Z,9.85
2019-03-03T19:03:58.842Z,9.85
2019-03-03T19:06:41.880Z,9.85
2019-03-03T19:09:20.577Z,9.85
2019-03-03T19:11:58.005Z,9.83
2019-03-03T19:14:28.446Z,9.85
2019-03-03T19:17:06.059Z,9.85
2019-03-03T19:19:34.989Z,9.82
2019-03-03T19:22:12.359Z,9.85
2019-03-03T19:24:49.278Z,9.85
2019-03-03T19:27:19.870Z,9.84
2019-03-03T19:29:57.091Z,9.85
2019-03-03T19:32:29.399Z,9.85
2019-03-03T19:35:02.231Z,9.85
2019-03-03T19:37:35.739Z,9.85
2019-03-03T19:40:12.900Z,9.85
2019-03-03T19:42:46.780Z,9.84
2019-03-03T19:45:21.110Z,9.83
2019-03-03T19:47:53.655Z,9.84
2019-03-03T19:50:29.491Z,9.83
2019-03-03T19:53:04.712Z,9.84
2019-03-03T19:55:46.984Z,9.81
2019-03-03T19:58:16.136Z,9.82
2019-03-03T20:00:50.528Z,9.81
2019-03-03T20:03:34.328Z,9.80
2019-03-03T20:06:17.249Z,9.83
2019-03-03T20:08:49.158Z,9.81
2019-03-03T20:11:26.500Z,9.80
2019-03-03T20:14:10.253Z,9.80
2019-03-03T20:16:45.542Z,9.80
2019-03-03T20:19:23.366Z,9.80
2019-03-03T20:22:01.615Z,9.81
2019-03-03T20:24:39.041Z,9.81
2019-03-03T20:27:16.638Z,9.80
2019-03-03T20:29:45.630Z,9.79
2019-03-03T20:32:26.986Z,9.79
2019-03-03T20:35:01.558Z,9.79
2019-03-03T20:37:35.250Z,9.81
2019-03-03T20:40:11.020Z,9.80
2019-03-03T20:42:45.816Z,9.80
2019-03-03T20:45:28.034Z,9.79
2019-03-03T20:47:59.077Z,9.78
2019-03-03T20:50:32.119Z,9.78
2019-03-03T20:53:04.033Z,9.77
2019-03-03T20:55:38.735Z,9.77
2019-03-03T20:58:10.539Z,9.74
2019-03-03T21:00:54.908Z,9.75
2019-03-03T21:03:23.438Z,9.75
2019-03-03T21:06:05.498Z,9.73
2019-03-03T21:08:37.845Z,9.72
2019-03-03T21:11:16.015Z,9.71
2019-03-03T21:13:53.007Z,9.69
2019-03-03T21:16:29.902Z,9.67
2019-03-03T21:19:07.472Z,9.65
2019-03-03T21:21:38.684Z,9.65
2019-03-03T21:24:15.162Z,9.62
2019-03-03T21:26:50.856Z,9.61
2019-03-03T21:29:20.869Z,9.60
2019-03-03T21:31:54.312Z,9.58
2019-03-03T21:34:28.525Z,9.55
2019-03-03T21:37:04.017Z,9.54
2019-03-03T21:39:37.313Z,9.52
2019-03-03T21:42:18.535Z,9.52
2019-03-03T21:45:02.816Z,9.50
2019-03-03T21:47:34.051Z,9.46
2019-03-03T21:50:12.556Z,9.44
2019-03-03T21:52:44.214Z,9.42
2019-03-03T21:55:13.579Z,9.43
2019-03-03T21:57:44.926Z,9.42
2019-03-03T22:00:38.514Z,9.41
2019-03-03T22:03:17.526Z,9.40
2019-03-03T22:05:46.795Z,9.39
2019-03-03T22:08:27.071Z,9.39
2019-03-03T22:11:07.717Z,9.39
2019-03-03T22:13:44.908Z,9.40
2019-03-03T22:16:17.581Z,9.38
2019-03-03T22:18:48.878Z,9.38
2019-03-03T22:21:26.134Z,9.38
2019-03-03T22:24:02.939Z,9.38
2019-03-03T22:26:43.791Z,9.38
2019-03-03T22:29:25.214Z,9.37
2019-03-03T22:32:02.163Z,9.36
2019-03-03T22:34:36.668Z,9.36
2019-03-03T22:37:08.396Z,9.36
2019-03-03T22:39:37.586Z,9.35
2019-03-03T22:42:14.301Z,9.34
2019-03-03T22:44:44.739Z,9.33
2019-03-03T22:47:15.423Z,9.34
2019-03-03T22:49:48.379Z,9.33
2019-03-03T22:52:23.881Z,9.33
2019-03-03T22:55:05.586Z,9.33
2019-03-03T22:57:54.398Z,9.31
2019-03-03T23:00:49.151Z,9.32
2019-03-03T23:04:02.069Z,9.31
2019-03-03T23:06:51.100Z,9.31
2019-03-03T23:10:20.103Z,9.30
2019-03-03T23:13:46.598Z,9.31
2019-03-03T23:16:52.710Z,9.30
2019-03-03T23:20:15.815Z,9.30
2019-03-03T23:23:43.261Z,9.30
2019-03-03T23:26:16.496Z,9.30
2019-03-03T23:28:49.170Z,9.31
2019-03-03T23:31:26.574Z,9.31
2019-03-03T23:34:03.260Z,9.33
2019-03-03T23:36:43.434Z,9.32
2019-03-03T23:39:15.833Z,9.32
2019-03-03T23:41:49.024Z,9.30
2019-03-03T23:44:33.201Z,9.31
2019-03-03T23:47:10.450Z,9.36
2019-03-03T23:49:46.086Z,9.38
2019-03-03T23:52:19.335Z,9.39
2019-03-03T23:55:04.507Z,9.40
2019-03-03T23:57:38.157Z,9.40
